sensor_id;sensor_type;location;lat;lon;timestamp;temperature;humidity
67870;DHT22;54673;52.262;6.830;2024-02-14T00:02:10;7.60;99.90
67870;DHT22;54673;52.262;6.830;2024-02-14T00:04:35;7.10;99.90
67870;DHT22;54673;52.262;6.830;2024-02-14T00:07:01;7.10;99.90
67870;DHT22;54673;52.262;6.830;2024-02-14T00:09:26;7.00;99.90
67870;DHT22;54673;52.262;6.830;2024-02-14T00:11:52;6.30;99.90
67870;DHT22;54673;52.262;6.830;2024-02-14T00:14:18;7.80;99.90
67870;DHT22;54673;52.262;6.830;2024-02-14T00:16:46;8.40;99.90
67870;DHT22;54673;52.262;6.830;2024-02-14T00:19:12;8.00;99.90
67870;DHT22;54673;52.262;6.830;2024-02-14T00:21:40;7.90;99.90
67870;DHT22;54673;52.262;6.830;2024-02-14T00:24:05;7.00;99.90
67870;DHT22;54673;52.262;6.830;2024-02-14T00:26:31;7.10;99.90
67870;DHT22;54673;52.262;6.830;2024-02-14T00:28:57;7.00;99.90
67870;DHT22;54673;52.262;6.830;2024-02-14T00:31:23;7.00;99.90
67870;DHT22;54673;52.262;6.830;2024-02-14T00:33:48;7.00;99.90
67870;DHT22;54673;52.262;6.830;2024-02-14T00:36:14;7.00;99.90
67870;DHT22;54673;52.262;6.830;2024-02-14T00:38:40;7.00;99.90
67870;DHT22;54673;52.262;6.830;2024-02-14T00:41:06;7.10;99.90
67870;DHT22;54673;52.262;6.830;2024-02-14T00:43:31;7.10;99.90
67870;DHT22;54673;52.262;6.830;2024-02-14T00:45:57;7.10;99.90
67870;DHT22;54673;52.262;6.830;2024-02-14T00:48:23;7.10;99.90
67870;DHT22;54673;52.262;6.830;2024-02-14T00:50:49;7.10;99.90
67870;DHT22;54673;52.262;6.830;2024-02-14T00:53:14;7.30;99.90
67870;DHT22;54673;52.262;6.830;2024-02-14T00:55:40;7.10;99.90
67870;DHT22;54673;52.262;6.830;2024-02-14T00:58:06;7.00;99.90
67870;DHT22;54673;52.262;6.830;2024-02-14T01:00:32;7.10;99.90
67870;DHT22;54673;52.262;6.830;2024-02-14T01:02:58;7.10;99.90
67870;DHT22;54673;52.262;6.830;2024-02-14T01:05:24;7.10;99.90
67870;DHT22;54673;52.262;6.830;2024-02-14T01:07:49;7.10;99.90
67870;DHT22;54673;52.262;6.830;2024-02-14T01:10:15;7.00;99.90
67870;DHT22;54673;52.262;6.830;2024-02-14T01:12:41;7.10;99.90
67870;DHT22;54673;52.262;6.830;2024-02-14T01:15:07;7.10;99.90
67870;DHT22;54673;52.262;6.830;2024-02-14T01:17:33;7.70;99.90
67870;DHT22;54673;52.262;6.830;2024-02-14T01:20:01;7.10;99.90
67870;DHT22;54673;52.262;6.830;2024-02-14T01:22:28;8.30;99.90
67870;DHT22;54673;52.262;6.830;2024-02-14T01:24:53;7.80;99.90
67870;DHT22;54673;52.262;6.830;2024-02-14T01:27:20;6.30;99.90
67870;DHT22;54673;52.262;6.830;2024-02-14T01:29:48;7.60;99.90
67870;DHT22;54673;52.262;6.830;2024-02-14T01:32:13;7.10;99.90
67870;DHT22;54673;52.262;6.830;2024-02-14T01:34:39;7.10;99.90
67870;DHT22;54673;52.262;6.830;2024-02-14T01:37:05;7.10;99.90
67870;DHT22;54673;52.262;6.830;2024-02-14T01:39:31;7.10;99.90
67870;DHT22;54673;52.262;6.830;2024-02-14T01:41:57;7.10;99.90
67870;DHT22;54673;52.262;6.830;2024-02-14T01:44:22;7.10;99.90
67870;DHT22;54673;52.262;6.830;2024-02-14T01:46:48;7.30;99.90
67870;DHT22;54673;52.262;6.830;2024-02-14T01:49:15;7.10;99.90
67870;DHT22;54673;52.262;6.830;2024-02-14T01:51:43;7.10;99.90
67870;DHT22;54673;52.262;6.830;2024-02-14T01:54:12;7.10;99.90
67870;DHT22;54673;52.262;6.830;2024-02-14T01:56:40;7.50;99.90
67870;DHT22;54673;52.262;6.830;2024-02-14T01:59:07;7.10;99.90
67870;DHT22;54673;52.262;6.830;2024-02-14T02:01:33;7.10;99.90
67870;DHT22;54673;52.262;6.830;2024-02-14T02:03:59;7.20;99.90
67870;DHT22;54673;52.262;6.830;2024-02-14T02:06:25;8.20;99.90
67870;DHT22;54673;52.262;6.830;2024-02-14T02:08:52;7.50;99.90
67870;DHT22;54673;52.262;6.830;2024-02-14T02:11:17;7.40;99.90
67870;DHT22;54673;52.262;6.830;2024-02-14T02:13:44;7.10;99.90
67870;DHT22;54673;52.262;6.830;2024-02-14T02:16:09;8.10;99.90
67870;DHT22;54673;52.262;6.830;2024-02-14T02:18:35;7.20;99.90
67870;DHT22;54673;52.262;6.830;2024-02-14T02:21:01;7.50;99.90
67870;DHT22;54673;52.262;6.830;2024-02-14T02:23:34;8.40;99.90
67870;DHT22;54673;52.262;6.830;2024-02-14T02:26:00;8.00;99.90
67870;DHT22;54673;52.262;6.830;2024-02-14T02:28:25;6.60;99.90
67870;DHT22;54673;52.262;6.830;2024-02-14T02:30:51;7.20;99.90
67870;DHT22;54673;52.262;6.830;2024-02-14T02:33:18;7.70;99.90
67870;DHT22;54673;52.262;6.830;2024-02-14T02:35:43;6.50;99.90
67870;DHT22;54673;52.262;6.830;2024-02-14T02:38:11;7.20;99.90
67870;DHT22;54673;52.262;6.830;2024-02-14T02:40:36;6.40;99.90
67870;DHT22;54673;52.262;6.830;2024-02-14T02:43:02;7.20;99.90
67870;DHT22;54673;52.262;6.830;2024-02-14T02:45:28;7.20;99.90
67870;DHT22;54673;52.262;6.830;2024-02-14T02:47:54;7.20;99.90
67870;DHT22;54673;52.262;6.830;2024-02-14T02:50:20;7.20;99.90
67870;DHT22;54673;52.262;6.830;2024-02-14T02:52:47;7.20;99.90
67870;DHT22;54673;52.262;6.830;2024-02-14T02:55:13;7.30;99.90
67870;DHT22;54673;52.262;6.830;2024-02-14T02:57:41;7.30;99.90
67870;DHT22;54673;52.262;6.830;2024-02-14T03:00:07;6.20;99.90
67870;DHT22;54673;52.262;6.830;2024-02-14T03:02:33;7.30;99.90
67870;DHT22;54673;52.262;6.830;2024-02-14T03:04:59;7.30;99.90
67870;DHT22;54673;52.262;6.830;2024-02-14T03:07:26;7.20;99.90
67870;DHT22;54673;52.262;6.830;2024-02-14T03:09:52;7.30;99.90
67870;DHT22;54673;52.262;6.830;2024-02-14T03:12:17;7.30;99.90
67870;DHT22;54673;52.262;6.830;2024-02-14T03:14:44;7.30;99.90
67870;DHT22;54673;52.262;6.830;2024-02-14T03:17:10;7.20;99.90
67870;DHT22;54673;52.262;6.830;2024-02-14T03:19:36;6.50;99.90
67870;DHT22;54673;52.262;6.830;2024-02-14T03:22:04;7.30;99.90
67870;DHT22;54673;52.262;6.830;2024-02-14T03:24:31;7.30;99.90
67870;DHT22;54673;52.262;6.830;2024-02-14T03:26:57;7.30;99.90
67870;DHT22;54673;52.262;6.830;2024-02-14T03:29:22;7.40;99.90
67870;DHT22;54673;52.262;6.830;2024-02-14T03:31:48;7.40;99.90
67870;DHT22;54673;52.262;6.830;2024-02-14T03:34:14;7.40;99.90
67870;DHT22;54673;52.262;6.830;2024-02-14T03:36:40;7.40;99.90
67870;DHT22;54673;52.262;6.830;2024-02-14T03:39:06;8.10;99.90
67870;DHT22;54673;52.262;6.830;2024-02-14T03:41:32;7.40;99.90
67870;DHT22;54673;52.262;6.830;2024-02-14T03:43:58;7.40;99.90
67870;DHT22;54673;52.262;6.830;2024-02-14T03:46:26;7.40;99.90
67870;DHT22;54673;52.262;6.830;2024-02-14T03:48:53;7.40;99.90
67870;DHT22;54673;52.262;6.830;2024-02-14T03:51:19;7.40;99.90
67870;DHT22;54673;52.262;6.830;2024-02-14T03:53:45;7.50;99.90
67870;DHT22;54673;52.262;6.830;2024-02-14T03:56:10;7.50;99.90
67870;DHT22;54673;52.262;6.830;2024-02-14T03:58:38;6.00;99.90
67870;DHT22;54673;52.262;6.830;2024-02-14T04:01:04;7.50;99.90
67870;DHT22;54673;52.262;6.830;2024-02-14T04:03:29;7.50;99.90
67870;DHT22;54673;52.262;6.830;2024-02-14T04:05:55;7.50;99.90
67870;DHT22;54673;52.262;6.830;2024-02-14T04:08:21;7.50;99.90
67870;DHT22;54673;52.262;6.830;2024-02-14T04:10:47;8.00;99.90
67870;DHT22;54673;52.262;6.830;2024-02-14T04:13:15;7.50;99.90
67870;DHT22;54673;52.262;6.830;2024-02-14T04:15:41;7.50;99.90
67870;DHT22;54673;52.262;6.830;2024-02-14T04:18:08;8.50;99.90
67870;DHT22;54673;52.262;6.830;2024-02-14T04:20:34;7.50;99.90
67870;DHT22;54673;52.262;6.830;2024-02-14T04:23:00;7.60;99.90
67870;DHT22;54673;52.262;6.830;2024-02-14T04:25:25;7.80;99.90
67870;DHT22;54673;52.262;6.830;2024-02-14T04:27:51;7.80;99.90
67870;DHT22;54673;52.262;6.830;2024-02-14T04:30:17;7.60;99.90
67870;DHT22;54673;52.262;6.830;2024-02-14T04:32:42;7.60;99.90
67870;DHT22;54673;52.262;6.830;2024-02-14T04:35:09;7.60;99.90
67870;DHT22;54673;52.262;6.830;2024-02-14T04:37:35;7.60;99.90
67870;DHT22;54673;52.262;6.830;2024-02-14T04:40:02;7.60;99.90
67870;DHT22;54673;52.262;6.830;2024-02-14T04:42:29;7.40;99.90
67870;DHT22;54673;52.262;6.830;2024-02-14T04:44:55;7.60;99.90
67870;DHT22;54673;52.262;6.830;2024-02-14T04:47:20;7.70;99.90
67870;DHT22;54673;52.262;6.830;2024-02-14T04:49:46;7.70;99.90
67870;DHT22;54673;52.262;6.830;2024-02-14T04:52:11;7.70;99.90
67870;DHT22;54673;52.262;6.830;2024-02-14T04:54:37;7.70;99.90
67870;DHT22;54673;52.262;6.830;2024-02-14T04:57:02;7.70;99.90
67870;DHT22;54673;52.262;6.830;2024-02-14T04:59:30;7.70;99.90
67870;DHT22;54673;52.262;6.830;2024-02-14T05:01:55;7.70;99.90
67870;DHT22;54673;52.262;6.830;2024-02-14T05:04:21;7.70;99.90
67870;DHT22;54673;52.262;6.830;2024-02-14T05:06:48;7.70;99.90
67870;DHT22;54673;52.262;6.830;2024-02-14T05:09:13;7.70;99.90
67870;DHT22;54673;52.262;6.830;2024-02-14T05:11:40;8.60;99.90
67870;DHT22;54673;52.262;6.830;2024-02-14T05:14:06;7.80;99.90
67870;DHT22;54673;52.262;6.830;2024-02-14T05:16:31;7.80;99.90
67870;DHT22;54673;52.262;6.830;2024-02-14T05:18:57;7.80;99.90
67870;DHT22;54673;52.262;6.830;2024-02-14T05:21:22;7.80;99.90
67870;DHT22;54673;52.262;6.830;2024-02-14T05:23:48;7.80;99.90
67870;DHT22;54673;52.262;6.830;2024-02-14T05:26:14;8.10;99.90
67870;DHT22;54673;52.262;6.830;2024-02-14T05:28:39;7.80;99.90
67870;DHT22;54673;52.262;6.830;2024-02-14T05:31:05;7.80;99.90
67870;DHT22;54673;52.262;6.830;2024-02-14T05:33:31;7.80;99.90
67870;DHT22;54673;52.262;6.830;2024-02-14T05:35:56;7.80;99.90
67870;DHT22;54673;52.262;6.830;2024-02-14T05:38:22;7.90;99.90
67870;DHT22;54673;52.262;6.830;2024-02-14T05:40:48;7.90;99.90
67870;DHT22;54673;52.262;6.830;2024-02-14T05:43:14;7.90;99.90
67870;DHT22;54673;52.262;6.830;2024-02-14T05:45:40;7.90;99.90
67870;DHT22;54673;52.262;6.830;2024-02-14T05:48:06;7.90;99.90
67870;DHT22;54673;52.262;6.830;2024-02-14T05:50:33;8.70;99.90
67870;DHT22;54673;52.262;6.830;2024-02-14T05:52:58;7.60;99.90
67870;DHT22;54673;52.262;6.830;2024-02-14T05:55:24;7.90;99.90
67870;DHT22;54673;52.262;6.830;2024-02-14T05:57:52;8.00;99.90
67870;DHT22;54673;52.262;6.830;2024-02-14T06:00:19;7.90;99.90
67870;DHT22;54673;52.262;6.830;2024-02-14T06:02:49;7.90;99.90
67870;DHT22;54673;52.262;6.830;2024-02-14T06:05:15;7.90;99.90
67870;DHT22;54673;52.262;6.830;2024-02-14T06:07:41;8.00;99.90
67870;DHT22;54673;52.262;6.830;2024-02-14T06:10:08;7.90;99.90
67870;DHT22;54673;52.262;6.830;2024-02-14T06:12:34;8.00;99.90
67870;DHT22;54673;52.262;6.830;2024-02-14T06:15:03;8.00;99.90
67870;DHT22;54673;52.262;6.830;2024-02-14T06:17:29;8.00;99.90
67870;DHT22;54673;52.262;6.830;2024-02-14T06:19:54;8.00;99.90
67870;DHT22;54673;52.262;6.830;2024-02-14T06:22:20;8.00;99.90
67870;DHT22;54673;52.262;6.830;2024-02-14T06:24:47;7.90;99.90
67870;DHT22;54673;52.262;6.830;2024-02-14T06:27:15;8.00;99.90
67870;DHT22;54673;52.262;6.830;2024-02-14T06:29:44;8.00;99.90
67870;DHT22;54673;52.262;6.830;2024-02-14T06:32:12;8.10;99.90
67870;DHT22;54673;52.262;6.830;2024-02-14T06:34:38;8.10;99.90
67870;DHT22;54673;52.262;6.830;2024-02-14T06:37:03;8.10;99.90
67870;DHT22;54673;52.262;6.830;2024-02-14T06:39:29;7.10;99.90
67870;DHT22;54673;52.262;6.830;2024-02-14T06:41:56;9.70;99.90
67870;DHT22;54673;52.262;6.830;2024-02-14T06:44:25;7.60;99.90
67870;DHT22;54673;52.262;6.830;2024-02-14T06:46:51;7.10;99.90
67870;DHT22;54673;52.262;6.830;2024-02-14T06:49:17;8.10;99.90
67870;DHT22;54673;52.262;6.830;2024-02-14T06:51:42;8.20;99.90
67870;DHT22;54673;52.262;6.830;2024-02-14T06:54:08;8.10;99.90
67870;DHT22;54673;52.262;6.830;2024-02-14T06:56:35;8.10;99.90
67870;DHT22;54673;52.262;6.830;2024-02-14T06:59:00;8.20;99.90
67870;DHT22;54673;52.262;6.830;2024-02-14T07:01:28;8.20;99.90
67870;DHT22;54673;52.262;6.830;2024-02-14T07:03:53;8.10;99.90
67870;DHT22;54673;52.262;6.830;2024-02-14T07:06:19;8.20;99.90
67870;DHT22;54673;52.262;6.830;2024-02-14T07:08:44;8.20;99.90
67870;DHT22;54673;52.262;6.830;2024-02-14T07:11:10;8.20;99.90
67870;DHT22;54673;52.262;6.830;2024-02-14T07:13:36;8.30;99.90
67870;DHT22;54673;52.262;6.830;2024-02-14T07:16:02;8.30;99.90
67870;DHT22;54673;52.262;6.830;2024-02-14T07:18:27;9.50;99.90
67870;DHT22;54673;52.262;6.830;2024-02-14T07:20:53;8.30;99.90
67870;DHT22;54673;52.262;6.830;2024-02-14T07:23:19;8.30;99.90
67870;DHT22;54673;52.262;6.830;2024-02-14T07:25:45;8.30;99.90
67870;DHT22;54673;52.262;6.830;2024-02-14T07:28:11;8.30;99.90
67870;DHT22;54673;52.262;6.830;2024-02-14T07:30:37;8.30;99.90
67870;DHT22;54673;52.262;6.830;2024-02-14T07:33:02;8.80;99.90
67870;DHT22;54673;52.262;6.830;2024-02-14T07:35:28;8.40;99.90
67870;DHT22;54673;52.262;6.830;2024-02-14T07:37:54;8.40;99.90
67870;DHT22;54673;52.262;6.830;2024-02-14T07:40:21;8.40;99.90
67870;DHT22;54673;52.262;6.830;2024-02-14T07:42:47;8.40;99.90
67870;DHT22;54673;52.262;6.830;2024-02-14T07:45:12;8.40;99.90
67870;DHT22;54673;52.262;6.830;2024-02-14T07:47:38;9.00;99.90
67870;DHT22;54673;52.262;6.830;2024-02-14T07:50:08;8.40;99.90
67870;DHT22;54673;52.262;6.830;2024-02-14T07:52:34;8.40;99.90
67870;DHT22;54673;52.262;6.830;2024-02-14T07:54:59;8.40;99.90
67870;DHT22;54673;52.262;6.830;2024-02-14T07:57:25;8.40;99.90
67870;DHT22;54673;52.262;6.830;2024-02-14T07:59:51;8.40;99.90
67870;DHT22;54673;52.262;6.830;2024-02-14T08:02:17;8.40;99.90
67870;DHT22;54673;52.262;6.830;2024-02-14T08:04:43;8.80;99.90
67870;DHT22;54673;52.262;6.830;2024-02-14T08:07:09;8.70;99.90
67870;DHT22;54673;52.262;6.830;2024-02-14T08:09:35;8.50;99.90
67870;DHT22;54673;52.262;6.830;2024-02-14T08:12:01;8.50;99.90
67870;DHT22;54673;52.262;6.830;2024-02-14T08:14:26;8.50;99.90
67870;DHT22;54673;52.262;6.830;2024-02-14T08:16:52;9.10;99.90
67870;DHT22;54673;52.262;6.830;2024-02-14T08:19:18;8.50;99.90
67870;DHT22;54673;52.262;6.830;2024-02-14T08:21:44;8.50;99.90
67870;DHT22;54673;52.262;6.830;2024-02-14T08:24:10;8.50;99.90
67870;DHT22;54673;52.262;6.830;2024-02-14T08:26:35;8.50;99.90
67870;DHT22;54673;52.262;6.830;2024-02-14T08:29:01;8.50;99.90
67870;DHT22;54673;52.262;6.830;2024-02-14T08:31:27;9.30;99.90
67870;DHT22;54673;52.262;6.830;2024-02-14T08:33:53;8.90;99.90
67870;DHT22;54673;52.262;6.830;2024-02-14T08:36:19;9.50;99.90
67870;DHT22;54673;52.262;6.830;2024-02-14T08:38:44;8.60;99.90
67870;DHT22;54673;52.262;6.830;2024-02-14T08:41:10;8.60;99.90
67870;DHT22;54673;52.262;6.830;2024-02-14T08:43:36;8.60;99.90
67870;DHT22;54673;52.262;6.830;2024-02-14T08:46:01;8.60;99.90
67870;DHT22;54673;52.262;6.830;2024-02-14T08:48:28;8.30;99.90
67870;DHT22;54673;52.262;6.830;2024-02-14T08:50:55;8.60;99.90
67870;DHT22;54673;52.262;6.830;2024-02-14T08:53:21;8.60;99.90
67870;DHT22;54673;52.262;6.830;2024-02-14T08:55:47;8.70;99.90
67870;DHT22;54673;52.262;6.830;2024-02-14T08:58:13;8.70;99.90
67870;DHT22;54673;52.262;6.830;2024-02-14T09:00:39;8.70;99.90
67870;DHT22;54673;52.262;6.830;2024-02-14T09:03:05;8.70;99.90
67870;DHT22;54673;52.262;6.830;2024-02-14T09:05:31;8.70;99.90
67870;DHT22;54673;52.262;6.830;2024-02-14T09:07:57;8.80;99.90
67870;DHT22;54673;52.262;6.830;2024-02-14T09:10:23;8.70;99.90
67870;DHT22;54673;52.262;6.830;2024-02-14T09:12:48;8.80;99.90
67870;DHT22;54673;52.262;6.830;2024-02-14T09:15:14;8.70;99.90
67870;DHT22;54673;52.262;6.830;2024-02-14T09:17:40;8.80;99.90
67870;DHT22;54673;52.262;6.830;2024-02-14T09:20:10;9.30;99.90
67870;DHT22;54673;52.262;6.830;2024-02-14T09:22:36;8.80;99.90
67870;DHT22;54673;52.262;6.830;2024-02-14T09:25:02;8.70;99.90
67870;DHT22;54673;52.262;6.830;2024-02-14T09:27:31;8.80;99.90
67870;DHT22;54673;52.262;6.830;2024-02-14T09:29:58;10.00;99.90
67870;DHT22;54673;52.262;6.830;2024-02-14T09:32:23;8.90;99.90
67870;DHT22;54673;52.262;6.830;2024-02-14T09:34:49;8.90;99.90
67870;DHT22;54673;52.262;6.830;2024-02-14T09:37:14;8.90;99.90
67870;DHT22;54673;52.262;6.830;2024-02-14T09:39:40;8.90;99.90
67870;DHT22;54673;52.262;6.830;2024-02-14T09:42:09;8.90;99.90
67870;DHT22;54673;52.262;6.830;2024-02-14T09:44:37;8.90;99.90
67870;DHT22;54673;52.262;6.830;2024-02-14T09:47:05;8.20;99.90
67870;DHT22;54673;52.262;6.830;2024-02-14T09:49:31;8.90;99.90
67870;DHT22;54673;52.262;6.830;2024-02-14T09:51:58;8.90;99.90
67870;DHT22;54673;52.262;6.830;2024-02-14T09:54:24;9.00;99.90
67870;DHT22;54673;52.262;6.830;2024-02-14T09:56:51;7.80;99.90
67870;DHT22;54673;52.262;6.830;2024-02-14T09:59:19;9.00;99.90
67870;DHT22;54673;52.262;6.830;2024-02-14T10:01:47;9.30;99.90
67870;DHT22;54673;52.262;6.830;2024-02-14T10:04:14;9.00;99.90
67870;DHT22;54673;52.262;6.830;2024-02-14T10:06:40;9.00;99.90
67870;DHT22;54673;52.262;6.830;2024-02-14T10:09:07;9.00;99.90
67870;DHT22;54673;52.262;6.830;2024-02-14T10:11:33;9.00;99.90
67870;DHT22;54673;52.262;6.830;2024-02-14T10:13:59;9.90;99.90
67870;DHT22;54673;52.262;6.830;2024-02-14T10:16:28;9.10;99.90
67870;DHT22;54673;52.262;6.830;2024-02-14T10:18:54;9.10;99.90
67870;DHT22;54673;52.262;6.830;2024-02-14T10:21:19;9.10;99.90
67870;DHT22;54673;52.262;6.830;2024-02-14T10:23:49;9.10;99.90
67870;DHT22;54673;52.262;6.830;2024-02-14T10:26:17;9.10;99.90
67870;DHT22;54673;52.262;6.830;2024-02-14T10:28:43;8.40;99.90
67870;DHT22;54673;52.262;6.830;2024-02-14T10:31:24;9.20;99.90
67870;DHT22;54673;52.262;6.830;2024-02-14T10:33:51;9.20;99.90
67870;DHT22;54673;52.262;6.830;2024-02-14T10:36:17;9.20;99.90
67870;DHT22;54673;52.262;6.830;2024-02-14T10:38:46;9.20;99.90
67870;DHT22;54673;52.262;6.830;2024-02-14T10:41:14;9.20;99.90
67870;DHT22;54673;52.262;6.830;2024-02-14T10:43:43;9.20;99.90
67870;DHT22;54673;52.262;6.830;2024-02-14T10:46:22;9.20;99.90
67870;DHT22;54673;52.262;6.830;2024-02-14T10:48:50;9.30;99.90
67870;DHT22;54673;52.262;6.830;2024-02-14T10:51:21;9.20;99.90
67870;DHT22;54673;52.262;6.830;2024-02-14T10:53:49;9.30;99.90
67870;DHT22;54673;52.262;6.830;2024-02-14T10:56:18;9.30;99.90
67870;DHT22;54673;52.262;6.830;2024-02-14T10:58:46;9.30;99.90
67870;DHT22;54673;52.262;6.830;2024-02-14T11:01:13;10.20;99.90
67870;DHT22;54673;52.262;6.830;2024-02-14T11:03:41;9.40;99.90
67870;DHT22;54673;52.262;6.830;2024-02-14T11:06:07;9.40;99.90
67870;DHT22;54673;52.262;6.830;2024-02-14T11:08:32;9.50;99.90
67870;DHT22;54673;52.262;6.830;2024-02-14T11:10:59;9.40;99.90
67870;DHT22;54673;52.262;6.830;2024-02-14T11:13:26;9.40;99.90
67870;DHT22;54673;52.262;6.830;2024-02-14T11:16:02;9.40;99.90
67870;DHT22;54673;52.262;6.830;2024-02-14T11:18:28;9.40;99.90
67870;DHT22;54673;52.262;6.830;2024-02-14T11:20:58;9.40;99.90
67870;DHT22;54673;52.262;6.830;2024-02-14T11:23:24;9.40;99.90
67870;DHT22;54673;52.262;6.830;2024-02-14T11:26:05;10.30;99.90
67870;DHT22;54673;52.262;6.830;2024-02-14T11:28:37;9.50;99.90
67870;DHT22;54673;52.262;6.830;2024-02-14T11:31:07;10.30;99.90
67870;DHT22;54673;52.262;6.830;2024-02-14T11:33:35;9.50;99.90
67870;DHT22;54673;52.262;6.830;2024-02-14T11:36:07;9.50;99.90
67870;DHT22;54673;52.262;6.830;2024-02-14T11:38:35;9.50;99.90
67870;DHT22;54673;52.262;6.830;2024-02-14T11:41:02;9.20;99.90
67870;DHT22;54673;52.262;6.830;2024-02-14T11:43:29;8.80;99.90
67870;DHT22;54673;52.262;6.830;2024-02-14T11:45:54;9.50;99.90
67870;DHT22;54673;52.262;6.830;2024-02-14T11:48:21;9.60;99.90
67870;DHT22;54673;52.262;6.830;2024-02-14T11:50:47;9.70;99.90
67870;DHT22;54673;52.262;6.830;2024-02-14T11:53:14;10.70;99.90
67870;DHT22;54673;52.262;6.830;2024-02-14T11:55:42;9.60;99.90
67870;DHT22;54673;52.262;6.830;2024-02-14T11:58:09;9.60;99.90
67870;DHT22;54673;52.262;6.830;2024-02-14T12:00:39;9.60;99.90
67870;DHT22;54673;52.262;6.830;2024-02-14T12:03:17;9.70;99.90
67870;DHT22;54673;52.262;6.830;2024-02-14T12:05:44;9.60;99.90
67870;DHT22;54673;52.262;6.830;2024-02-14T12:08:12;9.70;99.90
67870;DHT22;54673;52.262;6.830;2024-02-14T12:10:38;9.70;99.90
67870;DHT22;54673;52.262;6.830;2024-02-14T12:13:07;10.50;99.90
67870;DHT22;54673;52.262;6.830;2024-02-14T12:15:38;9.80;99.90
67870;DHT22;54673;52.262;6.830;2024-02-14T12:18:04;9.70;99.90
67870;DHT22;54673;52.262;6.830;2024-02-14T12:20:29;9.70;99.90
67870;DHT22;54673;52.262;6.830;2024-02-14T12:22:55;9.80;99.90
67870;DHT22;54673;52.262;6.830;2024-02-14T12:25:20;9.70;99.90
67870;DHT22;54673;52.262;6.830;2024-02-14T12:27:52;9.80;99.90
67870;DHT22;54673;52.262;6.830;2024-02-14T12:30:18;9.80;99.90
67870;DHT22;54673;52.262;6.830;2024-02-14T12:32:45;9.80;99.90
67870;DHT22;54673;52.262;6.830;2024-02-14T12:35:11;9.80;99.90
67870;DHT22;54673;52.262;6.830;2024-02-14T12:37:37;9.80;99.90
67870;DHT22;54673;52.262;6.830;2024-02-14T12:40:04;10.00;99.90
67870;DHT22;54673;52.262;6.830;2024-02-14T12:42:31;9.90;99.90
67870;DHT22;54673;52.262;6.830;2024-02-14T12:44:57;9.90;99.90
67870;DHT22;54673;52.262;6.830;2024-02-14T12:47:23;9.90;99.90
67870;DHT22;54673;52.262;6.830;2024-02-14T12:49:50;9.90;99.90
67870;DHT22;54673;52.262;6.830;2024-02-14T12:52:16;10.70;99.90
67870;DHT22;54673;52.262;6.830;2024-02-14T12:54:42;9.90;99.90
67870;DHT22;54673;52.262;6.830;2024-02-14T12:57:08;10.90;99.90
67870;DHT22;54673;52.262;6.830;2024-02-14T12:59:34;9.90;99.90
67870;DHT22;54673;52.262;6.830;2024-02-14T13:02:00;10.00;99.90
67870;DHT22;54673;52.262;6.830;2024-02-14T13:04:26;10.00;99.90
67870;DHT22;54673;52.262;6.830;2024-02-14T13:06:51;10.00;99.90
67870;DHT22;54673;52.262;6.830;2024-02-14T13:09:17;10.60;99.90
67870;DHT22;54673;52.262;6.830;2024-02-14T13:11:43;10.00;99.90
67870;DHT22;54673;52.262;6.830;2024-02-14T13:14:08;10.00;99.90
67870;DHT22;54673;52.262;6.830;2024-02-14T13:16:34;10.00;99.90
67870;DHT22;54673;52.262;6.830;2024-02-14T13:19:00;10.00;99.90
67870;DHT22;54673;52.262;6.830;2024-02-14T13:21:26;10.90;99.90
67870;DHT22;54673;52.262;6.830;2024-02-14T13:23:51;10.00;99.90
67870;DHT22;54673;52.262;6.830;2024-02-14T13:26:17;10.00;99.90
67870;DHT22;54673;52.262;6.830;2024-02-14T13:28:42;10.10;99.90
67870;DHT22;54673;52.262;6.830;2024-02-14T13:31:08;10.10;99.90
67870;DHT22;54673;52.262;6.830;2024-02-14T13:33:35;10.10;99.90
67870;DHT22;54673;52.262;6.830;2024-02-14T13:36:01;10.10;99.90
67870;DHT22;54673;52.262;6.830;2024-02-14T13:38:26;10.00;99.90
67870;DHT22;54673;52.262;6.830;2024-02-14T13:40:52;10.10;99.90
67870;DHT22;54673;52.262;6.830;2024-02-14T13:43:18;10.20;99.90
67870;DHT22;54673;52.262;6.830;2024-02-14T13:45:45;10.10;99.90
67870;DHT22;54673;52.262;6.830;2024-02-14T13:48:11;10.10;99.90
67870;DHT22;54673;52.262;6.830;2024-02-14T13:50:37;10.10;99.90
67870;DHT22;54673;52.262;6.830;2024-02-14T13:53:03;10.20;99.90
67870;DHT22;54673;52.262;6.830;2024-02-14T13:55:29;10.20;99.90
67870;DHT22;54673;52.262;6.830;2024-02-14T13:57:55;10.20;99.90
67870;DHT22;54673;52.262;6.830;2024-02-14T14:00:20;10.20;99.90
67870;DHT22;54673;52.262;6.830;2024-02-14T14:02:46;10.00;99.90
67870;DHT22;54673;52.262;6.830;2024-02-14T14:05:12;10.20;99.90
67870;DHT22;54673;52.262;6.830;2024-02-14T14:07:38;10.20;99.90
67870;DHT22;54673;52.262;6.830;2024-02-14T14:10:05;10.20;99.90
67870;DHT22;54673;52.262;6.830;2024-02-14T14:12:31;10.30;99.90
67870;DHT22;54673;52.262;6.830;2024-02-14T14:14:57;10.20;99.90
67870;DHT22;54673;52.262;6.830;2024-02-14T14:17:23;10.20;99.90
67870;DHT22;54673;52.262;6.830;2024-02-14T14:19:49;10.30;99.90
67870;DHT22;54673;52.262;6.830;2024-02-14T14:22:15;10.30;99.90
67870;DHT22;54673;52.262;6.830;2024-02-14T14:24:41;10.70;99.90
67870;DHT22;54673;52.262;6.830;2024-02-14T14:27:07;10.30;99.90
67870;DHT22;54673;52.262;6.830;2024-02-14T14:29:35;10.30;99.90
67870;DHT22;54673;52.262;6.830;2024-02-14T14:32:01;10.30;99.90
67870;DHT22;54673;52.262;6.830;2024-02-14T14:34:27;10.30;99.90
67870;DHT22;54673;52.262;6.830;2024-02-14T14:36:55;10.30;99.90
67870;DHT22;54673;52.262;6.830;2024-02-14T14:39:21;10.40;99.90
67870;DHT22;54673;52.262;6.830;2024-02-14T14:41:46;10.30;99.90
67870;DHT22;54673;52.262;6.830;2024-02-14T14:44:12;10.40;99.90
67870;DHT22;54673;52.262;6.830;2024-02-14T14:46:38;10.70;99.90
67870;DHT22;54673;52.262;6.830;2024-02-14T14:49:11;10.40;99.90
67870;DHT22;54673;52.262;6.830;2024-02-14T14:51:37;10.40;99.90
67870;DHT22;54673;52.262;6.830;2024-02-14T14:54:04;10.40;99.90
67870;DHT22;54673;52.262;6.830;2024-02-14T14:56:30;10.90;99.90
67870;DHT22;54673;52.262;6.830;2024-02-14T14:58:56;10.40;99.90
67870;DHT22;54673;52.262;6.830;2024-02-14T15:01:25;10.40;99.90
67870;DHT22;54673;52.262;6.830;2024-02-14T15:03:50;10.40;99.90
67870;DHT22;54673;52.262;6.830;2024-02-14T15:06:18;10.40;99.90
67870;DHT22;54673;52.262;6.830;2024-02-14T15:08:44;10.50;99.90
67870;DHT22;54673;52.262;6.830;2024-02-14T15:11:11;10.50;99.90
67870;DHT22;54673;52.262;6.830;2024-02-14T15:13:40;10.50;99.90
67870;DHT22;54673;52.262;6.830;2024-02-14T15:16:06;10.50;99.90
67870;DHT22;54673;52.262;6.830;2024-02-14T15:18:33;10.50;99.90
67870;DHT22;54673;52.262;6.830;2024-02-14T15:20:59;10.50;99.90
67870;DHT22;54673;52.262;6.830;2024-02-14T15:23:25;10.50;99.90
67870;DHT22;54673;52.262;6.830;2024-02-14T15:25:51;10.50;99.90
67870;DHT22;54673;52.262;6.830;2024-02-14T15:28:16;10.50;99.90
67870;DHT22;54673;52.262;6.830;2024-02-14T15:30:51;10.50;99.90
67870;DHT22;54673;52.262;6.830;2024-02-14T15:33:35;10.50;99.90
67870;DHT22;54673;52.262;6.830;2024-02-14T15:36:01;10.50;99.90
67870;DHT22;54673;52.262;6.830;2024-02-14T15:38:27;10.50;99.90